• Join FlightAware (Why Join?)
  • Login
  • US Flag 
04:24AM EDT


 

Airport Tracker/Info


-or-


 

Live Flight TrackerFlight Track Log ✈ N552XJ ✈ 22-Apr-2013 ✈ KOAK - KLGB

Flight Track Log - Related Links

Times and Time Zones

All times are in EDT time to prevent confusion due to time zone crossing. See the N552XJ flight status page for this flight to view local times or setup timezone preferences in your user account.

Time Position Orientation Groundspeed Altitude Reporting Facility
EDT Latitude Longitude Course Direction KTS MPH feet Rate Location/Type
05:30PM 37.7436 -122.2783 318° Northwest 206 237 1,900  Level Oakland Center
05:31PM 37.7353 -122.3494 262° West 259 298 4,900 3,960 Climbing Oakland Center
05:32PM 37.6833 -122.3833 207° Southwest 303 349 8,600 3,660 Climbing Northern Cal TRACON
05:33PM 37.5833 -122.4000 188° South 361 415 11,000 2,340 Climbing Northern Cal TRACON
05:33PM 37.5594 -122.4128 203° Southwest 354 407 11,900 3,120 Climbing Oakland Center
05:34PM 37.4561 -122.4436 193° South 376 433 15,400 3,300 Climbing Oakland Center
05:35PM 37.3436 -122.4719 191° South 404 465 18,700 1,800 Climbing Oakland Center
05:36PM 37.2294 -122.5011 191° South 417 480 19,100 1,560 Climbing Oakland Center
05:37PM 37.1117 -122.5308 191° South 427 491 21,900 3,360 Climbing Oakland Center
05:38PM 36.9692 -122.5703 192° South 437 503 26,100 3,300 Climbing Oakland Center
05:39PM 36.8478 -122.5444 170° South 439 505 28,700 2,340 Climbing Oakland Center
05:40PM 36.7478 -122.4436 141° Southeast 460 529 30,900 2,040 Climbing Oakland Center
05:41PM 36.6483 -122.3353 139° Southeast 473 544 32,900 1,860 Climbing Oakland Center
05:43PM 36.5467 -122.2256 139° Southeast 482 555 34,800 1,800 Climbing Oakland Center
05:44PM 36.4444 -122.1175 140° Southeast 483 556 36,600 1,680 Climbing Oakland Center
05:45PM 36.3450 -122.0072 138° Southeast 481 554 38,300 1,140 Climbing Oakland Center
05:46PM 36.2439 -121.8986 139° Southeast 481 554 39,000 300 Climbing Oakland Center
05:47PM 36.1367 -121.7828 139° Southeast 480 552 39,000  Level Oakland Center
05:48PM 36.0358 -121.6769 140° Southeast 477 549 39,000  Level Oakland Center
05:49PM 35.9358 -121.5694 139° Southeast 477 549 39,000  Level Oakland Center
05:50PM 35.8169 -121.4419 139° Southeast 473 544 39,000  Level Oakland Center
05:51PM 35.7164 -121.3372 140° Southeast 475 547 39,000  Level Oakland Center
05:52PM 35.6167 -121.2303 139° Southeast 475 547 39,000  Level Oakland Center
05:53PM 35.5169 -121.1256 139° Southeast 475 547 39,000  Level Oakland Center
05:54PM 35.4097 -121.0328 145° Southeast 473 544 39,000 -60 Level Oakland Center
05:55PM 35.2706 -120.9253 148° Southeast 474 545 38,900 -720 Descending Los Angeles Center
05:56PM 35.1594 -120.8381 147° Southeast 474 545 37,400 -1,560 Descending Los Angeles Center
05:57PM 35.0489 -120.7519 147° Southeast 472 543 35,700 -1,860 Descending Los Angeles Center
05:58PM 34.9169 -120.6492 147° Southeast 468 539 33,600 -1,800 Descending Los Angeles Center
05:59PM 34.8186 -120.5728 147° Southeast 464 534 32,100 -1,740 Descending Los Angeles Center
06:00PM 34.6825 -120.4681 148° Southeast 482 555 30,100 -1,800 Descending Los Angeles Center
06:01PM 34.5681 -120.3831 149° Southeast 482 555 28,400 -1,680 Descending Los Angeles Center
06:02PM 34.4522 -120.2942 148° Southeast 493 567 26,700 -1,680 Descending Los Angeles Center
06:03PM 34.3411 -120.2083 147° Southeast 478 550 25,000 -1,440 Descending Los Angeles Center
06:04PM 34.2439 -120.1200 143° Southeast 458 527 23,800 -1,380 Descending Los Angeles Center
06:05PM 34.1653 -119.9653 122° Southeast 449 517 22,200 -1,380 Descending Los Angeles Center
06:06PM 34.1011 -119.8386 121° Southeast 444 511 21,000 -1,200 Descending Los Angeles Center
06:07PM 34.0389 -119.7144 121° Southeast 438 504 19,700 -1,260 Descending Los Angeles Center
06:08PM 33.9761 -119.5900 121° Southeast 435 501 18,500 -1,200 Descending Los Angeles Center
06:10PM 33.9133 -119.4675 122° Southeast 431 496 17,300 -1,320 Descending Los Angeles Center
06:11PM 33.8408 -119.3214 121° Southeast 424 488 15,800 -1,260 Descending Los Angeles Center
06:12PM 33.7817 -119.2058 122° Southeast 412 474 14,700 -1,140 Descending Los Angeles Center
06:13PM 33.7247 -119.0939 121° Southeast 395 455 13,500 -1,080 Descending Los Angeles Center
06:14PM 33.6686 -118.9861 122° Southeast 384 442 12,500 -1,020 Descending Los Angeles Center
06:15PM 33.6139 -118.8786 121° Southeast 381 438 11,400 -1,080 Descending Los Angeles Center
06:16PM 33.6136 -118.7692 90° East 327 376 10,300 -1,560 Descending Los Angeles Center
06:17PM 33.6194 -118.6519 87° East 297 342 8,200 -1,980 Descending Los Angeles Center
06:18PM 33.6228 -118.5589 88° East 283 326 6,300 -1,800 Descending Los Angeles Center
06:19PM 33.6275 -118.4672 86° East 277 319 4,600 -1,200 Descending Los Angeles Center
06:20PM 33.6294 -118.3764 89° East 277 319 3,900 -780 Descending Los Angeles Center
06:21PM 33.6358 -118.2686 86° East 276 318 3,000 -480 Descending Los Angeles Center
06:22PM 33.6408 -118.1817 86° East 272 313 3,000 -60 Level Los Angeles Center
06:23PM 33.6467 -118.1008 85° East 256 295 2,900 -420 Descending Los Angeles Center
06:23PM 33.6500 -118.0667 83° East 195 224 2,400 -960 Descending Southern California TRACON
06:24PM 33.6667 -118.0167 68° East 193 222 1,600 -420 Descending Southern California TRACON
06:25PM 33.7167 -118.0333 345° North 190 219 1,600  Level Southern California TRACON
06:26PM 33.7500 -118.0667 320° Northwest 187 215 1,600 -360 Level Southern California TRACON
06:27PM 33.7833 -118.1000 320° Northwest 138 159 900 -660 Descending Southern California TRACON
06:28PM 33.7978 -118.1250 305° West 152 175 500 -480 Descending Los Angeles Center
06:29PM 33.8203 -118.1539 313° West 145 167 100 -420 Descending Los Angeles Center
06:31PM 33.8167 -118.1500 North  Level FlightAware Approximate